createdAt,value
2018-12-18T00:01:57.551Z,68.27
2018-12-18T00:04:26.143Z,67.90
2018-12-18T00:06:54.831Z,64.63
2018-12-18T00:09:23.414Z,64.27
2018-12-18T00:11:51.985Z,63.03
2018-12-18T00:14:20.615Z,64.53
2018-12-18T00:16:49.249Z,61.10
2018-12-18T00:19:18.589Z,63.93
2018-12-18T00:21:47.211Z,60.10
2018-12-18T00:24:15.923Z,65.60
2018-12-18T00:26:44.522Z,64.23
2018-12-18T00:29:13.279Z,59.80
2018-12-18T00:31:41.933Z,70.67
2018-12-18T00:34:10.689Z,90.40
2018-12-18T00:36:39.314Z,100.13
2018-12-18T00:39:12.191Z,94.73
2018-12-18T00:41:40.812Z,99.47
2018-12-18T00:44:10.257Z,90.63
2018-12-18T00:46:38.876Z,83.77
2018-12-18T00:49:08.395Z,75.53
2018-12-18T00:51:37.618Z,78.37
2018-12-18T00:54:06.223Z,73.37
2018-12-18T00:56:34.887Z,74.23
2018-12-18T00:59:03.491Z,65.77
2018-12-18T01:01:32.163Z,64.80
2018-12-18T01:04:00.805Z,63.10
2018-12-18T01:06:29.467Z,63.87
2018-12-18T01:08:58.071Z,62.57
2018-12-18T01:11:26.741Z,60.57
2018-12-18T01:13:55.322Z,64.30
2018-12-18T01:16:24.004Z,66.23
2018-12-18T01:18:53.208Z,62.07
2018-12-18T01:21:21.812Z,65.33
2018-12-18T01:23:50.560Z,65.77
2018-12-18T01:26:19.236Z,63.43
2018-12-18T01:28:47.844Z,65.33
2018-12-18T01:31:16.530Z,70.17
2018-12-18T01:33:45.183Z,72.50
2018-12-18T01:36:13.815Z,71.07
2018-12-18T01:38:42.452Z,73.37
2018-12-18T01:41:11.371Z,73.13
2018-12-18T01:43:40.541Z,74.40
2018-12-18T01:46:09.152Z,79.47
2018-12-18T01:48:37.797Z,73.20
2018-12-18T01:51:06.523Z,84.37
2018-12-18T01:53:35.131Z,84.07
2018-12-18T01:56:03.889Z,90.10
2018-12-18T01:58:32.547Z,92.27
2018-12-18T02:01:01.191Z,95.40
2018-12-18T02:03:29.835Z,95.70
2018-12-18T02:05:58.801Z,101.07
2018-12-18T02:08:27.504Z,98.87
2018-12-18T02:10:56.225Z,101.17
2018-12-18T02:13:24.818Z,104.73
2018-12-18T02:15:53.449Z,97.47
2018-12-18T02:18:22.193Z,89.93
2018-12-18T02:20:50.808Z,92.13
2018-12-18T02:23:19.952Z,94.10
2018-12-18T02:25:48.582Z,88.73
2018-12-18T02:28:17.755Z,84.63
2018-12-18T02:30:47.213Z,93.53
2018-12-18T02:33:15.898Z,99.10
2018-12-18T02:35:45.080Z,97.97
2018-12-18T02:38:13.693Z,94.67
2018-12-18T02:40:42.301Z,94.63
2018-12-18T02:43:11.116Z,91.47
2018-12-18T02:45:40.157Z,91.83
2018-12-18T02:48:08.839Z,97.23
2018-12-18T02:50:37.478Z,98.73
2018-12-18T02:53:06.072Z,92.93
2018-12-18T02:55:34.716Z,97.23
2018-12-18T02:58:03.323Z,99.33
2018-12-18T03:00:32.064Z,96.37
2018-12-18T03:03:00.702Z,96.53
2018-12-18T03:05:29.337Z,100.67
2018-12-18T03:07:58.622Z,95.23
2018-12-18T03:10:27.259Z,101.53
2018-12-18T03:12:55.897Z,94.27
2018-12-18T03:15:25.082Z,97.37
2018-12-18T03:17:53.798Z,100.90
2018-12-18T03:20:22.399Z,102.23
2018-12-18T03:22:51.158Z,98.70
2018-12-18T03:25:27.140Z,96.53
2018-12-18T03:27:55.735Z,97.53
2018-12-18T03:30:24.360Z,100.67
2018-12-18T03:32:56.117Z,94.30
2018-12-18T03:35:24.779Z,99.57
2018-12-18T03:37:53.361Z,96.83
2018-12-18T03:40:22.035Z,107.17
2018-12-18T03:42:50.666Z,96.83
2018-12-18T03:45:19.328Z,103.87
2018-12-18T03:47:47.974Z,97.20
2018-12-18T03:50:16.685Z,95.30
2018-12-18T03:52:45.292Z,90.07
2018-12-18T03:55:13.872Z,91.27
2018-12-18T03:57:43.163Z,85.00
2018-12-18T04:00:12.502Z,83.73
2018-12-18T04:02:41.144Z,90.57
2018-12-18T04:05:09.873Z,91.83
2018-12-18T04:07:38.461Z,90.30
2018-12-18T04:10:07.440Z,83.03
2018-12-18T04:12:36.041Z,87.30
2018-12-18T04:15:08.220Z,84.27
2018-12-18T04:17:36.957Z,85.67
2018-12-18T04:20:05.604Z,86.57
2018-12-18T04:22:34.269Z,85.87
2018-12-18T04:25:02.923Z,83.20
2018-12-18T04:27:32.421Z,86.03
2018-12-18T04:30:01.109Z,91.80
2018-12-18T04:32:29.899Z,93.33
2018-12-18T04:34:59.203Z,91.60
2018-12-18T04:37:27.864Z,92.30
2018-12-18T04:39:56.503Z,88.40
2018-12-18T04:42:25.113Z,89.40
2018-12-18T04:44:54.065Z,90.77
2018-12-18T04:47:22.723Z,95.03
2018-12-18T04:49:51.418Z,86.40
2018-12-18T04:52:20.139Z,83.43
2018-12-18T04:54:48.756Z,87.23
2018-12-18T04:57:17.362Z,88.47
2018-12-18T04:59:46.015Z,90.00
2018-12-18T05:02:14.648Z,96.43
2018-12-18T05:04:49.931Z,90.17
2018-12-18T05:07:14.019Z,90.13
2018-12-18T05:09:42.647Z,96.80
2018-12-18T05:12:11.848Z,95.70
2018-12-18T05:14:40.484Z,96.40
2018-12-18T05:17:09.127Z,95.60
2018-12-18T05:19:37.742Z,102.40
2018-12-18T05:22:06.503Z,90.53
2018-12-18T05:24:35.096Z,98.50
2018-12-18T05:27:03.856Z,90.50
2018-12-18T05:29:32.449Z,92.47
2018-12-18T05:32:01.081Z,93.30
2018-12-18T05:34:29.773Z,90.93
2018-12-18T05:36:58.405Z,93.67
2018-12-18T05:39:27.007Z,87.37
2018-12-18T05:41:55.691Z,88.20
2018-12-18T05:44:24.443Z,90.30
2018-12-18T05:46:53.087Z,89.33
2018-12-18T05:49:21.773Z,93.57
2018-12-18T05:51:50.441Z,86.33
2018-12-18T05:54:19.739Z,91.73
2018-12-18T05:56:48.410Z,82.63
2018-12-18T05:59:17.197Z,88.80
2018-12-18T06:01:46.482Z,83.40
2018-12-18T06:04:15.719Z,85.80
2018-12-18T06:06:44.389Z,77.07
2018-12-18T06:09:13.124Z,63.63
2018-12-18T06:11:46.478Z,59.40
2018-12-18T06:14:15.075Z,57.83
2018-12-18T06:16:43.701Z,59.30
2018-12-18T06:19:12.316Z,57.17
2018-12-18T06:21:40.952Z,56.47
2018-12-18T06:24:09.599Z,59.17
2018-12-18T06:26:38.366Z,59.80
2018-12-18T06:29:06.969Z,67.77
2018-12-18T06:31:35.533Z,68.70
2018-12-18T06:34:04.198Z,67.23
2018-12-18T06:36:33.587Z,64.77
2018-12-18T06:39:02.278Z,68.93
2018-12-18T06:41:30.944Z,64.17
2018-12-18T06:43:59.574Z,60.57
2018-12-18T06:46:28.156Z,60.03
2018-12-18T06:48:56.782Z,58.90
2018-12-18T06:51:25.552Z,59.97
2018-12-18T06:53:54.164Z,62.23
2018-12-18T06:56:22.798Z,60.47
2018-12-18T06:58:51.400Z,60.33
2018-12-18T07:01:20.030Z,57.57
2018-12-18T07:03:48.713Z,58.67
2018-12-18T07:06:17.423Z,55.10
2018-12-18T07:08:46.088Z,58.07
2018-12-18T07:11:14.916Z,57.77
2018-12-18T07:13:43.679Z,54.83
2018-12-18T07:16:12.277Z,57.60
2018-12-18T07:18:40.936Z,61.47
2018-12-18T07:21:09.546Z,60.53
2018-12-18T07:23:38.299Z,54.50
2018-12-18T07:26:06.940Z,65.83
2018-12-18T07:28:35.539Z,64.00
2018-12-18T07:31:05.785Z,58.57
2018-12-18T07:33:34.422Z,57.10
2018-12-18T07:36:03.030Z,62.90
2018-12-18T07:38:31.639Z,62.20
2018-12-18T07:41:00.227Z,61.93
2018-12-18T07:43:28.935Z,57.17
2018-12-18T07:45:57.553Z,58.70
2018-12-18T07:48:30.130Z,57.63
2018-12-18T07:50:58.772Z,52.53
2018-12-18T07:53:27.642Z,52.33
2018-12-18T07:56:00.256Z,55.87
2018-12-18T07:58:27.037Z,52.27
2018-12-18T08:00:55.638Z,56.43
2018-12-18T08:03:24.278Z,59.13
2018-12-18T08:05:52.973Z,56.67
2018-12-18T08:08:21.644Z,61.93
2018-12-18T08:10:50.364Z,75.03
2018-12-18T08:13:18.949Z,87.60
2018-12-18T08:15:47.732Z,67.10
2018-12-18T08:18:16.458Z,63.47
2018-12-18T08:20:46.255Z,59.93
2018-12-18T08:23:15.063Z,63.27
2018-12-18T08:25:43.655Z,58.07
2018-12-18T08:28:13.074Z,57.40
2018-12-18T08:30:42.350Z,58.37
2018-12-18T08:33:10.958Z,71.20
2018-12-18T08:35:39.610Z,67.53
2018-12-18T08:38:08.228Z,96.27
2018-12-18T08:40:36.889Z,88.50
2018-12-18T08:43:05.548Z,80.37
2018-12-18T08:45:34.128Z,74.47
2018-12-18T08:48:02.740Z,85.17
2018-12-18T08:50:31.394Z,80.80
2018-12-18T08:53:00.047Z,82.60
2018-12-18T08:55:28.992Z,73.40
2018-12-18T08:57:57.581Z,84.23
2018-12-18T09:00:26.211Z,89.47
2018-12-18T09:02:55.624Z,83.20
2018-12-18T09:05:24.452Z,89.17
2018-12-18T09:07:53.077Z,77.50
2018-12-18T09:10:21.874Z,84.30
2018-12-18T09:12:50.571Z,80.37
2018-12-18T09:15:24.396Z,85.53
2018-12-18T09:17:53.112Z,84.53
2018-12-18T09:20:21.868Z,84.90
2018-12-18T09:22:50.522Z,79.37
2018-12-18T09:25:19.098Z,77.30
2018-12-18T09:27:47.728Z,77.07
2018-12-18T09:30:16.420Z,71.30
2018-12-18T09:32:45.059Z,73.73
2018-12-18T09:35:14.286Z,75.83
2018-12-18T09:37:43.620Z,73.17
2018-12-18T09:40:12.246Z,73.87
2018-12-18T09:42:46.313Z,75.33
2018-12-18T09:45:15.632Z,73.57
2018-12-18T09:47:44.212Z,73.73
2018-12-18T09:50:13.106Z,72.00
2018-12-18T09:52:41.752Z,72.77
2018-12-18T09:55:10.364Z,74.33
2018-12-18T09:57:44.506Z,71.77
2018-12-18T10:00:13.251Z,75.57
2018-12-18T10:02:41.911Z,75.57
2018-12-18T10:05:10.518Z,69.80
2018-12-18T10:07:39.120Z,68.00
2018-12-18T10:10:08.451Z,76.63
2018-12-18T10:12:42.318Z,68.47
2018-12-18T10:15:10.956Z,65.77
2018-12-18T10:17:39.641Z,66.60
2018-12-18T10:20:09.080Z,61.63
2018-12-18T10:22:37.686Z,67.17
2018-12-18T10:25:06.520Z,65.07
2018-12-18T10:27:35.238Z,67.77
2018-12-18T10:30:04.185Z,63.67
2018-12-18T10:32:32.817Z,67.87
2018-12-18T10:35:01.441Z,66.93
2018-12-18T10:37:30.109Z,64.07
2018-12-18T10:39:58.730Z,67.50
2018-12-18T10:42:27.402Z,66.03
2018-12-18T10:44:56.021Z,65.33
2018-12-18T10:47:24.667Z,63.17
2018-12-18T10:49:53.301Z,67.63
2018-12-18T10:52:21.892Z,66.30
2018-12-18T10:54:50.478Z,63.80
2018-12-18T10:57:19.148Z,65.23
2018-12-18T10:59:47.992Z,66.27
2018-12-18T11:02:16.636Z,66.23
2018-12-18T11:04:45.307Z,67.67
2018-12-18T11:07:14.543Z,66.10
2018-12-18T11:09:43.148Z,65.47
2018-12-18T11:12:11.811Z,66.80
2018-12-18T11:14:40.422Z,84.20
2018-12-18T11:17:09.135Z,68.60
2018-12-18T11:19:37.855Z,81.63
2018-12-18T11:22:06.531Z,67.20
2018-12-18T11:24:35.203Z,69.00
2018-12-18T11:27:03.827Z,66.57
2018-12-18T11:29:32.402Z,66.63
2018-12-18T11:32:00.992Z,66.10
2018-12-18T11:34:29.651Z,68.03
2018-12-18T11:36:58.349Z,67.77
2018-12-18T11:39:27.057Z,70.43
2018-12-18T11:41:55.703Z,67.23
2018-12-18T11:44:24.328Z,68.33
2018-12-18T11:46:52.935Z,68.97
2018-12-18T11:49:21.813Z,67.30
2018-12-18T11:51:50.411Z,66.43
2018-12-18T11:54:19.027Z,66.37
2018-12-18T11:56:47.645Z,69.90
2018-12-18T11:59:16.387Z,70.23
2018-12-18T12:01:45.119Z,76.93
2018-12-18T12:04:13.737Z,71.60
2018-12-18T12:06:42.389Z,67.17
2018-12-18T12:09:10.993Z,67.33
2018-12-18T12:11:40.351Z,65.80
2018-12-18T12:14:09.203Z,106.83
2018-12-18T12:16:37.915Z,80.47
2018-12-18T12:19:06.573Z,68.37
2018-12-18T12:21:35.189Z,67.80
2018-12-18T12:24:03.808Z,66.87
2018-12-18T12:26:34.189Z,67.43
2018-12-18T12:29:03.072Z,65.30
2018-12-18T12:31:31.707Z,62.97
2018-12-18T12:34:00.379Z,70.40
2018-12-18T12:36:29.768Z,70.20
2018-12-18T12:38:58.714Z,67.13
2018-12-18T12:41:27.387Z,70.13
2018-12-18T12:43:56.013Z,74.27
2018-12-18T12:46:24.588Z,68.73
2018-12-18T12:48:54.581Z,67.40
2018-12-18T12:51:23.649Z,66.23
2018-12-18T12:53:52.227Z,64.53
2018-12-18T12:56:20.868Z,62.07
2018-12-18T12:58:49.457Z,62.30
2018-12-18T13:01:18.093Z,63.23
2018-12-18T13:03:46.803Z,60.23
2018-12-18T13:06:15.437Z,64.37
2018-12-18T13:08:44.040Z,64.47
2018-12-18T13:11:12.681Z,68.87
2018-12-18T13:13:41.385Z,63.17
2018-12-18T13:16:10.053Z,60.23
2018-12-18T13:18:38.780Z,62.03
2018-12-18T13:21:07.425Z,65.27
2018-12-18T13:23:36.015Z,59.57
2018-12-18T13:26:04.777Z,59.57
2018-12-18T13:28:35.422Z,60.83
2018-12-18T13:31:04.030Z,64.20
2018-12-18T13:33:32.624Z,68.13
2018-12-18T13:36:01.281Z,62.40
2018-12-18T13:38:29.978Z,65.07
2018-12-18T13:40:58.578Z,63.03
2018-12-18T13:43:27.200Z,64.93
2018-12-18T13:45:56.439Z,65.00
2018-12-18T13:48:25.051Z,60.90
2018-12-18T13:50:53.618Z,59.30
2018-12-18T13:53:22.246Z,62.33
2018-12-18T13:55:50.855Z,60.27
2018-12-18T13:58:19.443Z,59.97
2018-12-18T14:00:48.132Z,58.83
2018-12-18T14:03:16.895Z,60.63
2018-12-18T14:05:45.529Z,62.80
2018-12-18T14:08:14.172Z,63.13
2018-12-18T14:10:42.773Z,65.37
2018-12-18T14:13:11.343Z,61.23
2018-12-18T14:15:47.733Z,66.53
2018-12-18T14:18:16.378Z,62.80
2018-12-18T14:20:45.014Z,58.77
2018-12-18T14:23:13.662Z,63.67
2018-12-18T14:25:42.280Z,63.20
2018-12-18T14:28:10.897Z,66.33
2018-12-18T14:30:39.488Z,120.80
2018-12-18T14:33:08.081Z,108.17
2018-12-18T14:35:36.867Z,110.20
2018-12-18T14:38:05.534Z,105.37
2018-12-18T14:40:34.151Z,81.27
2018-12-18T14:43:02.740Z,73.33
2018-12-18T14:45:31.654Z,61.17
2018-12-18T14:48:00.208Z,60.43
2018-12-18T14:50:28.944Z,59.03
2018-12-18T14:52:57.583Z,60.73
2018-12-18T14:55:27.165Z,58.33
2018-12-18T14:57:56.329Z,54.30
2018-12-18T15:00:24.960Z,51.70
2018-12-18T15:02:54.389Z,53.30
2018-12-18T15:05:23.809Z,52.00
2018-12-18T15:07:52.431Z,54.30
2018-12-18T15:10:21.030Z,54.70
2018-12-18T15:12:50.203Z,51.97
2018-12-18T15:15:19.192Z,52.10
2018-12-18T15:17:51.027Z,50.57
2018-12-18T15:20:19.626Z,54.20
2018-12-18T15:22:48.247Z,48.83
2018-12-18T15:25:17.602Z,44.73
2018-12-18T15:27:46.214Z,48.23
2018-12-18T15:30:14.852Z,43.73
2018-12-18T15:32:43.633Z,49.17
2018-12-18T15:35:12.746Z,50.93
2018-12-18T15:37:42.100Z,46.53
2018-12-18T15:40:10.839Z,50.97
2018-12-18T15:42:39.463Z,46.93
2018-12-18T15:45:08.786Z,44.23
2018-12-18T15:47:37.452Z,49.00
2018-12-18T15:50:08.081Z,48.10
2018-12-18T15:52:36.887Z,46.80
2018-12-18T15:55:06.155Z,46.33
2018-12-18T15:57:34.849Z,44.60
2018-12-18T16:00:03.704Z,41.73
2018-12-18T16:02:32.365Z,41.10
2018-12-18T16:05:01.057Z,41.47
2018-12-18T16:07:30.654Z,45.63
2018-12-18T16:09:59.244Z,46.17
2018-12-18T16:12:27.941Z,70.83
2018-12-18T16:14:56.658Z,96.80
2018-12-18T16:17:25.324Z,85.40
2018-12-18T16:19:53.985Z,74.40
2018-12-18T16:22:22.586Z,49.97
2018-12-18T16:24:51.230Z,50.17
2018-12-18T16:27:20.198Z,47.80
2018-12-18T16:29:48.804Z,45.30
2018-12-18T16:32:17.494Z,45.37
2018-12-18T16:34:46.100Z,44.00
2018-12-18T16:37:14.712Z,45.27
2018-12-18T16:39:43.380Z,43.50
2018-12-18T16:42:12.014Z,43.77
2018-12-18T16:44:40.632Z,49.57
2018-12-18T16:47:09.280Z,45.37
2018-12-18T16:49:37.906Z,46.20
2018-12-18T16:52:06.688Z,43.13
2018-12-18T16:54:35.484Z,47.17
2018-12-18T16:57:04.206Z,51.77
2018-12-18T17:02:07.977Z,56.40
2018-12-18T17:04:36.610Z,54.07
2018-12-18T17:07:05.202Z,50.60
2018-12-18T17:09:34.089Z,57.97
2018-12-18T17:12:02.838Z,62.70
2018-12-18T17:14:31.443Z,56.77
2018-12-18T17:17:00.107Z,66.23
2018-12-18T17:19:29.647Z,63.60
2018-12-18T17:21:59.234Z,54.47
2018-12-18T17:24:27.906Z,56.00
2018-12-18T17:26:56.511Z,58.20
2018-12-18T17:29:28.454Z,53.97
2018-12-18T17:31:57.040Z,51.20
2018-12-18T17:34:25.626Z,54.40
2018-12-18T17:36:54.299Z,57.30
2018-12-18T17:39:22.921Z,54.57
2018-12-18T17:41:51.664Z,51.53
2018-12-18T17:44:20.333Z,52.27
2018-12-18T17:46:48.993Z,51.23
2018-12-18T17:49:17.619Z,53.77
2018-12-18T17:51:46.918Z,55.13
2018-12-18T17:54:26.906Z,51.67
2018-12-18T17:56:56.135Z,49.20
2018-12-18T17:59:24.717Z,48.07
2018-12-18T18:01:53.378Z,51.17
2018-12-18T18:04:22.707Z,53.30
2018-12-18T18:06:51.329Z,51.10
2018-12-18T18:09:19.940Z,54.60
2018-12-18T18:11:48.668Z,52.20
2018-12-18T18:14:17.861Z,50.93
2018-12-18T18:16:46.538Z,50.13
2018-12-18T18:19:15.160Z,51.87
2018-12-18T18:21:43.795Z,54.53
2018-12-18T18:24:12.600Z,50.20
2018-12-18T18:26:41.262Z,50.90
2018-12-18T18:29:09.856Z,48.37
2018-12-18T18:31:38.447Z,52.43
2018-12-18T18:34:07.120Z,53.10
2018-12-18T18:36:35.721Z,50.63
2018-12-18T18:39:07.436Z,54.50
2018-12-18T18:41:36.050Z,53.87
2018-12-18T18:44:04.842Z,53.93
2018-12-18T18:46:33.772Z,81.70
2018-12-18T18:49:02.395Z,67.47
2018-12-18T18:51:31.202Z,64.10
2018-12-18T18:54:00.128Z,61.00
2018-12-18T18:56:29.014Z,99.83
2018-12-18T18:58:57.629Z,66.63
2018-12-18T19:01:27.084Z,62.97
2018-12-18T19:03:55.645Z,66.17
2018-12-18T19:06:24.231Z,64.73
2018-12-18T19:08:52.841Z,64.07
2018-12-18T19:11:21.594Z,62.07
2018-12-18T19:13:50.250Z,62.00
2018-12-18T19:16:18.916Z,61.13
2018-12-18T19:18:47.577Z,60.33
2018-12-18T19:21:16.228Z,63.67
2018-12-18T19:23:44.981Z,65.43
2018-12-18T19:26:13.649Z,62.73
2018-12-18T19:28:42.257Z,64.17
2018-12-18T19:31:10.910Z,63.50
2018-12-18T19:33:39.517Z,67.67
2018-12-18T19:36:08.120Z,65.93
2018-12-18T19:38:36.760Z,66.77
2018-12-18T19:41:05.410Z,67.43
2018-12-18T19:43:34.038Z,64.30
2018-12-18T19:46:02.744Z,68.03
2018-12-18T19:48:31.786Z,67.80
2018-12-18T19:51:00.491Z,69.97
2018-12-18T19:53:29.136Z,66.30
2018-12-18T19:55:57.784Z,67.10
2018-12-18T19:58:26.398Z,65.57
2018-12-18T20:00:55.056Z,64.87
2018-12-18T20:03:23.686Z,66.87
2018-12-18T20:05:52.310Z,63.17
2018-12-18T20:08:21.018Z,61.50
2018-12-18T20:10:49.633Z,62.47
2018-12-18T20:13:18.354Z,60.57
2018-12-18T20:15:47.140Z,59.70
2018-12-18T20:18:24.339Z,57.77
2018-12-18T20:20:53.004Z,59.03
2018-12-18T20:23:21.710Z,60.53
2018-12-18T20:25:50.579Z,59.97
2018-12-18T20:28:19.266Z,62.00
2018-12-18T20:30:47.955Z,58.50
2018-12-18T20:33:16.588Z,58.90
2018-12-18T20:35:45.251Z,57.47
2018-12-18T20:38:16.946Z,59.77
2018-12-18T20:40:44.706Z,57.70
2018-12-18T20:43:13.355Z,57.47
2018-12-18T20:45:41.993Z,59.63
2018-12-18T20:48:10.617Z,58.60
2018-12-18T20:50:39.249Z,57.13
2018-12-18T20:53:18.062Z,57.73
2018-12-18T20:55:46.762Z,60.17
2018-12-18T20:58:15.472Z,55.43
2018-12-18T21:00:44.146Z,58.57
2018-12-18T21:03:12.873Z,60.70
2018-12-18T21:05:41.549Z,58.30
2018-12-18T21:08:10.332Z,58.67
2018-12-18T21:10:39.075Z,56.93
2018-12-18T21:13:13.200Z,62.93
2018-12-18T21:15:41.921Z,59.07
2018-12-18T21:18:10.630Z,57.17
2018-12-18T21:20:41.909Z,55.37
2018-12-18T21:23:10.586Z,60.00
2018-12-18T21:25:39.379Z,58.93
2018-12-18T21:28:08.085Z,53.80
2018-12-18T21:30:36.775Z,59.13
2018-12-18T21:33:06.811Z,56.57
2018-12-18T21:35:35.469Z,56.80
2018-12-18T21:38:04.191Z,59.57
2018-12-18T21:40:32.877Z,57.83
2018-12-18T21:43:12.013Z,57.33
2018-12-18T21:45:40.671Z,55.57
2018-12-18T21:48:10.035Z,56.53
2018-12-18T21:50:38.705Z,58.77
2018-12-18T21:53:07.325Z,58.73
2018-12-18T21:55:39.388Z,54.17
2018-12-18T21:58:07.974Z,65.40
2018-12-18T22:00:36.625Z,57.90
2018-12-18T22:03:05.297Z,52.97
2018-12-18T22:05:33.939Z,54.87
2018-12-18T22:08:02.588Z,55.73
2018-12-18T22:10:31.250Z,54.87
2018-12-18T22:12:59.952Z,54.67
2018-12-18T22:15:28.683Z,54.37
2018-12-18T22:17:57.328Z,53.87
2018-12-18T22:20:26.062Z,58.43
2018-12-18T22:22:54.748Z,54.13
2018-12-18T22:25:23.404Z,51.73
2018-12-18T22:27:52.486Z,53.67
2018-12-18T22:30:21.252Z,56.07
2018-12-18T22:32:49.911Z,55.83
2018-12-18T22:35:18.516Z,55.40
2018-12-18T22:37:47.171Z,58.60
2018-12-18T22:40:15.917Z,59.00
2018-12-18T22:42:44.578Z,55.53
2018-12-18T22:45:13.193Z,52.47
2018-12-18T22:47:41.864Z,50.93
2018-12-18T22:50:10.499Z,54.47
2018-12-18T22:52:39.123Z,55.67
2018-12-18T22:55:07.841Z,53.60
2018-12-18T22:57:36.477Z,55.33
2018-12-18T23:00:06.503Z,51.30
2018-12-18T23:02:35.207Z,54.10
2018-12-18T23:05:04.350Z,53.13
2018-12-18T23:07:33.055Z,55.43
2018-12-18T23:10:01.746Z,50.47
2018-12-18T23:12:30.412Z,53.27
2018-12-18T23:14:59.067Z,50.47
2018-12-18T23:17:27.773Z,55.03
2018-12-18T23:19:56.390Z,51.60
2018-12-18T23:22:25.849Z,54.30
2018-12-18T23:24:54.527Z,51.97
2018-12-18T23:27:23.239Z,51.70
2018-12-18T23:29:51.909Z,57.57
2018-12-18T23:32:20.631Z,52.67
2018-12-18T23:34:49.283Z,53.10
2018-12-18T23:37:17.945Z,54.20
2018-12-18T23:39:46.615Z,54.50
2018-12-18T23:42:15.617Z,51.33
2018-12-18T23:44:44.215Z,51.77
2018-12-18T23:47:12.885Z,54.70
2018-12-18T23:49:41.553Z,53.17
2018-12-18T23:52:10.347Z,49.40
2018-12-18T23:54:39.043Z,55.20
2018-12-18T23:57:07.705Z,56.53
2018-12-18T23:59:36.346Z,56.57
